sensor_id;sensor_type;location;lat;lon;timestamp;pressure;altitude;pressure_sealevel;temperature;humidity
41250;BME280;26984;59.928;30.306;2023-05-19T00:01:10;102569.25;;;8.45;100.00
41250;BME280;26984;59.928;30.306;2023-05-19T00:03:42;102587.69;;;8.40;100.00
41250;BME280;26984;59.928;30.306;2023-05-19T00:06:20;102577.91;;;8.39;100.00
41250;BME280;26984;59.928;30.306;2023-05-19T00:08:48;102579.97;;;8.27;100.00
41250;BME280;26984;59.928;30.306;2023-05-19T00:11:17;102579.59;;;8.22;100.00
41250;BME280;26984;59.928;30.306;2023-05-19T00:13:45;102574.75;;;8.26;100.00
41250;BME280;26984;59.928;30.306;2023-05-19T00:16:14;102589.38;;;8.13;100.00
41250;BME280;26984;59.928;30.306;2023-05-19T00:18:42;102577.19;;;8.01;100.00
41250;BME280;26984;59.928;30.306;2023-05-19T00:21:10;102599.34;;;8.03;100.00
41250;BME280;26984;59.928;30.306;2023-05-19T00:23:42;102589.25;;;8.15;100.00
41250;BME280;26984;59.928;30.306;2023-05-19T00:26:10;102599.50;;;8.02;100.00
41250;BME280;26984;59.928;30.306;2023-05-19T00:28:45;102609.72;;;7.98;100.00
41250;BME280;26984;59.928;30.306;2023-05-19T00:31:13;102596.53;;;8.05;100.00
41250;BME280;26984;59.928;30.306;2023-05-19T00:33:42;102601.72;;;7.88;100.00
41250;BME280;26984;59.928;30.306;2023-05-19T00:36:12;102597.03;;;7.90;100.00
41250;BME280;26984;59.928;30.306;2023-05-19T00:38:40;102602.00;;;7.85;100.00
41250;BME280;26984;59.928;30.306;2023-05-19T00:41:09;102605.94;;;7.91;100.00
41250;BME280;26984;59.928;30.306;2023-05-19T00:43:38;102606.19;;;7.98;100.00
41250;BME280;26984;59.928;30.306;2023-05-19T00:46:09;102602.19;;;8.02;100.00
41250;BME280;26984;59.928;30.306;2023-05-19T00:48:37;102619.66;;;7.88;100.00
41250;BME280;26984;59.928;30.306;2023-05-19T00:51:05;102616.41;;;7.84;100.00
41250;BME280;26984;59.928;30.306;2023-05-19T00:53:33;102612.59;;;7.87;100.00
41250;BME280;26984;59.928;30.306;2023-05-19T00:56:03;102624.94;;;7.80;100.00
41250;BME280;26984;59.928;30.306;2023-05-19T00:58:34;102621.09;;;7.82;100.00
41250;BME280;26984;59.928;30.306;2023-05-19T01:01:04;102623.53;;;7.76;100.00
41250;BME280;26984;59.928;30.306;2023-05-19T01:03:34;102626.59;;;7.81;100.00
41250;BME280;26984;59.928;30.306;2023-05-19T01:06:02;102630.22;;;7.89;100.00
41250;BME280;26984;59.928;30.306;2023-05-19T01:08:31;102630.38;;;7.88;100.00
41250;BME280;26984;59.928;30.306;2023-05-19T01:10:58;102640.63;;;7.75;100.00
41250;BME280;26984;59.928;30.306;2023-05-19T01:13:27;102641.03;;;7.80;100.00
41250;BME280;26984;59.928;30.306;2023-05-19T01:16:01;102643.91;;;7.68;100.00
41250;BME280;26984;59.928;30.306;2023-05-19T01:18:37;102649.16;;;7.60;100.00
41250;BME280;26984;59.928;30.306;2023-05-19T01:21:12;102642.66;;;7.63;100.00
41250;BME280;26984;59.928;30.306;2023-05-19T01:23:50;102654.41;;;7.52;100.00
41250;BME280;26984;59.928;30.306;2023-05-19T01:26:27;102654.56;;;7.51;100.00
41250;BME280;26984;59.928;30.306;2023-05-19T01:31:48;102657.34;;;7.59;100.00
41250;BME280;26984;59.928;30.306;2023-05-19T01:34:16;102660.59;;;7.62;100.00
41250;BME280;26984;59.928;30.306;2023-05-19T01:36:49;102659.41;;;7.75;100.00
41250;BME280;26984;59.928;30.306;2023-05-19T01:39:18;102657.88;;;7.72;100.00
41250;BME280;26984;59.928;30.306;2023-05-19T01:41:47;102665.47;;;7.77;100.00
41250;BME280;26984;59.928;30.306;2023-05-19T01:44:16;102668.13;;;7.86;100.00
41250;BME280;26984;59.928;30.306;2023-05-19T01:46:45;102663.44;;;7.88;100.00
41250;BME280;26984;59.928;30.306;2023-05-19T01:49:15;102681.09;;;7.91;100.00
41250;BME280;26984;59.928;30.306;2023-05-19T01:51:44;102685.59;;;7.90;100.00
41250;BME280;26984;59.928;30.306;2023-05-19T01:54:14;102684.22;;;7.86;100.00
41250;BME280;26984;59.928;30.306;2023-05-19T01:56:45;102684.69;;;8.00;100.00
41250;BME280;26984;59.928;30.306;2023-05-19T01:59:20;102685.41;;;8.02;100.00
41250;BME280;26984;59.928;30.306;2023-05-19T02:01:56;102688.94;;;8.02;100.00
41250;BME280;26984;59.928;30.306;2023-05-19T02:04:31;102699.81;;;8.01;100.00
41250;BME280;26984;59.928;30.306;2023-05-19T02:07:08;102686.97;;;8.04;100.00
41250;BME280;26984;59.928;30.306;2023-05-19T02:09:37;102689.31;;;8.07;100.00
41250;BME280;26984;59.928;30.306;2023-05-19T02:12:09;102698.81;;;8.02;100.00
41250;BME280;26984;59.928;30.306;2023-05-19T02:14:44;102694.22;;;7.94;100.00
41250;BME280;26984;59.928;30.306;2023-05-19T02:17:17;102702.84;;;7.88;100.00
41250;BME280;26984;59.928;30.306;2023-05-19T02:19:49;102707.06;;;7.90;100.00
41250;BME280;26984;59.928;30.306;2023-05-19T02:22:19;102702.56;;;7.91;100.00
41250;BME280;26984;59.928;30.306;2023-05-19T02:24:47;102701.81;;;7.99;100.00
41250;BME280;26984;59.928;30.306;2023-05-19T02:27:17;102708.91;;;7.90;100.00
41250;BME280;26984;59.928;30.306;2023-05-19T02:29:47;102701.41;;;7.94;100.00
41250;BME280;26984;59.928;30.306;2023-05-19T02:32:15;102698.28;;;7.98;100.00
41250;BME280;26984;59.928;30.306;2023-05-19T02:34:47;102702.50;;;8.01;100.00
41250;BME280;26984;59.928;30.306;2023-05-19T02:37:16;102705.75;;;8.04;100.00
41250;BME280;26984;59.928;30.306;2023-05-19T02:39:45;102705.13;;;8.10;100.00
41250;BME280;26984;59.928;30.306;2023-05-19T02:42:14;102711.50;;;8.09;100.00
41250;BME280;26984;59.928;30.306;2023-05-19T02:44:43;102709.06;;;8.16;100.00
41250;BME280;26984;59.928;30.306;2023-05-19T02:47:13;102711.53;;;8.27;99.98
41250;BME280;26984;59.928;30.306;2023-05-19T02:49:41;102712.38;;;8.28;98.89
41250;BME280;26984;59.928;30.306;2023-05-19T02:52:09;102720.66;;;8.16;99.48
41250;BME280;26984;59.928;30.306;2023-05-19T02:54:39;102717.22;;;8.24;98.98
41250;BME280;26984;59.928;30.306;2023-05-19T02:57:08;102710.69;;;8.27;99.45
41250;BME280;26984;59.928;30.306;2023-05-19T02:59:36;102705.78;;;8.22;98.52
41250;BME280;26984;59.928;30.306;2023-05-19T03:02:06;102712.69;;;8.25;98.44
41250;BME280;26984;59.928;30.306;2023-05-19T03:04:34;102709.69;;;8.28;98.75
41250;BME280;26984;59.928;30.306;2023-05-19T03:07:07;102720.69;;;8.34;98.57
41250;BME280;26984;59.928;30.306;2023-05-19T03:09:40;102715.84;;;8.48;95.63
41250;BME280;26984;59.928;30.306;2023-05-19T03:12:09;102714.88;;;8.39;96.68
41250;BME280;26984;59.928;30.306;2023-05-19T03:14:41;102717.69;;;8.47;94.94
41250;BME280;26984;59.928;30.306;2023-05-19T03:17:11;102726.34;;;8.41;94.63
41250;BME280;26984;59.928;30.306;2023-05-19T03:19:40;102740.91;;;8.38;93.61
41250;BME280;26984;59.928;30.306;2023-05-19T03:22:08;102723.09;;;8.37;94.71
41250;BME280;26984;59.928;30.306;2023-05-19T03:24:37;102739.94;;;8.39;93.36
41250;BME280;26984;59.928;30.306;2023-05-19T03:27:06;102726.16;;;8.43;92.44
41250;BME280;26984;59.928;30.306;2023-05-19T03:29:34;102732.44;;;8.33;92.00
41250;BME280;26984;59.928;30.306;2023-05-19T03:32:05;102736.38;;;8.39;92.02
41250;BME280;26984;59.928;30.306;2023-05-19T03:34:36;102741.44;;;8.42;90.53
41250;BME280;26984;59.928;30.306;2023-05-19T03:37:07;102744.63;;;8.55;88.06
41250;BME280;26984;59.928;30.306;2023-05-19T03:39:37;102746.97;;;8.68;86.90
41250;BME280;26984;59.928;30.306;2023-05-19T03:42:08;102761.13;;;8.60;86.26
41250;BME280;26984;59.928;30.306;2023-05-19T03:44:36;102749.66;;;8.68;86.43
41250;BME280;26984;59.928;30.306;2023-05-19T03:47:05;102768.81;;;8.73;85.55
41250;BME280;26984;59.928;30.306;2023-05-19T03:50:00;102764.59;;;8.71;86.42
41250;BME280;26984;59.928;30.306;2023-05-19T03:52:51;102757.00;;;8.66;86.98
41250;BME280;26984;59.928;30.306;2023-05-19T03:55:31;102777.66;;;8.83;87.51
41250;BME280;26984;59.928;30.306;2023-05-19T03:58:01;102761.78;;;8.90;87.39
41250;BME280;26984;59.928;30.306;2023-05-19T04:00:29;102772.38;;;8.92;87.36
41250;BME280;26984;59.928;30.306;2023-05-19T04:03:13;102770.53;;;8.92;87.69
41250;BME280;26984;59.928;30.306;2023-05-19T04:05:41;102780.75;;;8.88;87.96
41250;BME280;26984;59.928;30.306;2023-05-19T04:08:09;102775.75;;;8.94;88.21
41250;BME280;26984;59.928;30.306;2023-05-19T04:10:37;102786.56;;;8.84;89.70
41250;BME280;26984;59.928;30.306;2023-05-19T04:13:06;102779.44;;;8.93;90.58
41250;BME280;26984;59.928;30.306;2023-05-19T04:15:35;102780.50;;;9.00;88.59
41250;BME280;26984;59.928;30.306;2023-05-19T04:18:04;102783.91;;;9.02;88.86
41250;BME280;26984;59.928;30.306;2023-05-19T04:20:35;102789.44;;;9.00;88.57
41250;BME280;26984;59.928;30.306;2023-05-19T04:23:03;102774.81;;;9.03;88.91
41250;BME280;26984;59.928;30.306;2023-05-19T04:25:30;102779.97;;;9.14;88.36
41250;BME280;26984;59.928;30.306;2023-05-19T04:28:01;102787.59;;;9.19;88.32
41250;BME280;26984;59.928;30.306;2023-05-19T04:30:31;102780.47;;;9.35;87.13
41250;BME280;26984;59.928;30.306;2023-05-19T04:33:00;102777.13;;;9.33;86.52
41250;BME280;26984;59.928;30.306;2023-05-19T04:35:29;102783.34;;;9.34;86.63
41250;BME280;26984;59.928;30.306;2023-05-19T04:38:00;102784.88;;;9.37;86.23
41250;BME280;26984;59.928;30.306;2023-05-19T04:40:32;102789.66;;;9.43;86.20
41250;BME280;26984;59.928;30.306;2023-05-19T04:43:00;102790.78;;;9.40;86.03
41250;BME280;26984;59.928;30.306;2023-05-19T04:45:28;102776.25;;;9.51;85.77
41250;BME280;26984;59.928;30.306;2023-05-19T04:48:02;102792.50;;;9.67;84.92
41250;BME280;26984;59.928;30.306;2023-05-19T04:50:30;102797.66;;;9.78;81.81
41250;BME280;26984;59.928;30.306;2023-05-19T04:52:59;102788.50;;;9.71;81.92
41250;BME280;26984;59.928;30.306;2023-05-19T04:55:28;102781.66;;;9.85;81.98
41250;BME280;26984;59.928;30.306;2023-05-19T04:57:59;102789.97;;;9.92;81.71
41250;BME280;26984;59.928;30.306;2023-05-19T05:00:27;102788.28;;;9.91;81.54
41250;BME280;26984;59.928;30.306;2023-05-19T05:03:01;102785.28;;;9.94;82.31
41250;BME280;26984;59.928;30.306;2023-05-19T05:05:31;102799.31;;;10.05;79.84
41250;BME280;26984;59.928;30.306;2023-05-19T05:08:00;102789.25;;;10.16;77.94
41250;BME280;26984;59.928;30.306;2023-05-19T05:10:33;102791.06;;;10.33;77.06
41250;BME280;26984;59.928;30.306;2023-05-19T05:13:01;102802.84;;;10.32;75.81
41250;BME280;26984;59.928;30.306;2023-05-19T05:15:29;102816.50;;;10.13;76.31
41250;BME280;26984;59.928;30.306;2023-05-19T05:18:03;102795.13;;;10.11;75.89
41250;BME280;26984;59.928;30.306;2023-05-19T05:20:31;102794.69;;;10.24;75.42
41250;BME280;26984;59.928;30.306;2023-05-19T05:23:01;102796.59;;;10.31;74.37
41250;BME280;26984;59.928;30.306;2023-05-19T05:25:31;102794.88;;;10.57;73.15
41250;BME280;26984;59.928;30.306;2023-05-19T05:27:59;102785.31;;;10.78;71.86
41250;BME280;26984;59.928;30.306;2023-05-19T05:30:32;102786.84;;;10.97;70.31
41250;BME280;26984;59.928;30.306;2023-05-19T05:33:00;102790.75;;;11.11;69.23
41250;BME280;26984;59.928;30.306;2023-05-19T05:35:34;102790.44;;;11.14;67.55
41250;BME280;26984;59.928;30.306;2023-05-19T05:38:03;102805.06;;;11.12;67.03
41250;BME280;26984;59.928;30.306;2023-05-19T05:40:34;102802.72;;;11.09;67.05
41250;BME280;26984;59.928;30.306;2023-05-19T05:43:02;102800.16;;;10.99;67.59
41250;BME280;26984;59.928;30.306;2023-05-19T05:45:35;102805.78;;;11.14;66.47
41250;BME280;26984;59.928;30.306;2023-05-19T05:48:04;102807.03;;;10.77;68.35
41250;BME280;26984;59.928;30.306;2023-05-19T05:50:33;102810.09;;;10.82;69.14
41250;BME280;26984;59.928;30.306;2023-05-19T05:53:03;102819.03;;;10.83;68.96
41250;BME280;26984;59.928;30.306;2023-05-19T05:55:36;102816.59;;;10.63;70.34
41250;BME280;26984;59.928;30.306;2023-05-19T05:58:06;102814.06;;;10.62;71.28
41250;BME280;26984;59.928;30.306;2023-05-19T06:00:37;102824.53;;;10.65;71.53
41250;BME280;26984;59.928;30.306;2023-05-19T06:03:05;102815.53;;;10.48;72.59
41250;BME280;26984;59.928;30.306;2023-05-19T06:05:37;102819.03;;;10.40;72.81
41250;BME280;26984;59.928;30.306;2023-05-19T06:08:08;102825.59;;;10.38;74.09
41250;BME280;26984;59.928;30.306;2023-05-19T06:10:36;102826.09;;;10.41;73.29
41250;BME280;26984;59.928;30.306;2023-05-19T06:13:09;102827.44;;;10.37;73.76
41250;BME280;26984;59.928;30.306;2023-05-19T06:15:39;102829.97;;;10.39;73.56
41250;BME280;26984;59.928;30.306;2023-05-19T06:18:19;102826.84;;;10.60;73.16
41250;BME280;26984;59.928;30.306;2023-05-19T06:20:48;102828.59;;;10.69;73.07
41250;BME280;26984;59.928;30.306;2023-05-19T06:23:18;102832.13;;;10.77;72.25
41250;BME280;26984;59.928;30.306;2023-05-19T06:25:45;102840.00;;;10.63;72.96
41250;BME280;26984;59.928;30.306;2023-05-19T06:28:14;102838.34;;;10.62;73.20
41250;BME280;26984;59.928;30.306;2023-05-19T06:30:43;102843.81;;;10.44;72.96
41250;BME280;26984;59.928;30.306;2023-05-19T06:33:19;102840.63;;;10.48;72.38
41250;BME280;26984;59.928;30.306;2023-05-19T06:35:48;102847.84;;;10.40;71.32
41250;BME280;26984;59.928;30.306;2023-05-19T06:38:19;102837.69;;;10.34;71.43
41250;BME280;26984;59.928;30.306;2023-05-19T06:40:47;102848.56;;;10.24;72.87
41250;BME280;26984;59.928;30.306;2023-05-19T06:43:16;102844.97;;;10.41;72.62
41250;BME280;26984;59.928;30.306;2023-05-19T06:45:55;102837.38;;;10.79;70.24
41250;BME280;26984;59.928;30.306;2023-05-19T06:48:24;102836.88;;;10.92;69.07
41250;BME280;26984;59.928;30.306;2023-05-19T06:50:54;102831.34;;;11.01;69.83
41250;BME280;26984;59.928;30.306;2023-05-19T06:53:25;102838.94;;;10.98;67.77
41250;BME280;26984;59.928;30.306;2023-05-19T06:55:54;102837.25;;;10.97;68.43
41250;BME280;26984;59.928;30.306;2023-05-19T06:58:23;102832.72;;;11.06;67.83
41250;BME280;26984;59.928;30.306;2023-05-19T07:00:52;102830.38;;;11.11;67.32
41250;BME280;26984;59.928;30.306;2023-05-19T07:03:21;102836.47;;;11.29;66.42
41250;BME280;26984;59.928;30.306;2023-05-19T07:05:49;102834.25;;;11.16;66.82
41250;BME280;26984;59.928;30.306;2023-05-19T07:08:19;102834.56;;;11.05;67.69
41250;BME280;26984;59.928;30.306;2023-05-19T07:10:50;102836.97;;;11.24;66.82
41250;BME280;26984;59.928;30.306;2023-05-19T07:13:19;102844.72;;;11.19;67.16
41250;BME280;26984;59.928;30.306;2023-05-19T07:15:49;102828.53;;;11.44;67.04
41250;BME280;26984;59.928;30.306;2023-05-19T07:18:18;102829.53;;;11.75;66.22
41250;BME280;26984;59.928;30.306;2023-05-19T07:20:47;102848.94;;;12.04;63.45
41250;BME280;26984;59.928;30.306;2023-05-19T07:23:15;102846.41;;;11.94;62.61
41250;BME280;26984;59.928;30.306;2023-05-19T07:25:44;102829.88;;;11.97;62.66
41250;BME280;26984;59.928;30.306;2023-05-19T07:28:14;102830.34;;;12.09;62.01
41250;BME280;26984;59.928;30.306;2023-05-19T07:30:42;102838.16;;;11.95;62.16
41250;BME280;26984;59.928;30.306;2023-05-19T07:33:10;102833.38;;;12.06;62.14
41250;BME280;26984;59.928;30.306;2023-05-19T07:35:38;102834.25;;;11.98;62.00
41250;BME280;26984;59.928;30.306;2023-05-19T07:38:09;102843.88;;;12.01;61.89
41250;BME280;26984;59.928;30.306;2023-05-19T07:40:37;102834.91;;;12.08;60.93
41250;BME280;26984;59.928;30.306;2023-05-19T07:43:05;102845.00;;;12.22;60.37
41250;BME280;26984;59.928;30.306;2023-05-19T07:45:35;102843.63;;;12.27;59.83
41250;BME280;26984;59.928;30.306;2023-05-19T07:48:07;102855.16;;;12.12;59.95
41250;BME280;26984;59.928;30.306;2023-05-19T07:50:35;102853.25;;;12.29;59.81
41250;BME280;26984;59.928;30.306;2023-05-19T07:53:04;102849.81;;;12.52;59.12
41250;BME280;26984;59.928;30.306;2023-05-19T07:55:34;102846.16;;;12.76;58.55
41250;BME280;26984;59.928;30.306;2023-05-19T07:58:05;102840.31;;;13.18;58.54
41250;BME280;26984;59.928;30.306;2023-05-19T08:00:36;102830.25;;;13.73;58.24
41250;BME280;26984;59.928;30.306;2023-05-19T08:03:04;102852.94;;;14.09;55.01
41250;BME280;26984;59.928;30.306;2023-05-19T08:05:33;102846.63;;;13.41;58.34
41250;BME280;26984;59.928;30.306;2023-05-19T08:08:01;102840.69;;;13.15;60.48
41250;BME280;26984;59.928;30.306;2023-05-19T08:10:29;102847.75;;;12.93;62.06
41250;BME280;26984;59.928;30.306;2023-05-19T08:12:59;102842.47;;;12.68;64.13
41250;BME280;26984;59.928;30.306;2023-05-19T08:15:27;102842.31;;;12.62;65.85
41250;BME280;26984;59.928;30.306;2023-05-19T08:17:58;102833.28;;;12.46;67.13
41250;BME280;26984;59.928;30.306;2023-05-19T08:20:29;102838.88;;;12.37;67.58
41250;BME280;26984;59.928;30.306;2023-05-19T08:22:58;102841.69;;;12.52;65.15
41250;BME280;26984;59.928;30.306;2023-05-19T08:25:27;102854.13;;;12.21;64.92
41250;BME280;26984;59.928;30.306;2023-05-19T08:27:54;102855.44;;;12.34;66.38
41250;BME280;26984;59.928;30.306;2023-05-19T08:30:23;102850.63;;;12.52;65.13
41250;BME280;26984;59.928;30.306;2023-05-19T08:32:51;102849.06;;;12.66;64.43
41250;BME280;26984;59.928;30.306;2023-05-19T08:35:21;102847.19;;;12.75;65.07
41250;BME280;26984;59.928;30.306;2023-05-19T08:37:49;102846.53;;;12.64;65.63
41250;BME280;26984;59.928;30.306;2023-05-19T08:40:17;102852.97;;;12.63;64.72
41250;BME280;26984;59.928;30.306;2023-05-19T08:42:45;102846.84;;;12.69;63.22
41250;BME280;26984;59.928;30.306;2023-05-19T08:45:14;102848.09;;;12.59;63.13
41250;BME280;26984;59.928;30.306;2023-05-19T08:47:42;102851.75;;;12.74;65.71
41250;BME280;26984;59.928;30.306;2023-05-19T08:50:13;102852.69;;;12.89;72.91
41250;BME280;26984;59.928;30.306;2023-05-19T08:52:50;102864.53;;;12.88;74.89
41250;BME280;26984;59.928;30.306;2023-05-19T08:55:21;102865.44;;;12.73;69.70
41250;BME280;26984;59.928;30.306;2023-05-19T08:57:53;102858.41;;;12.63;72.90
41250;BME280;26984;59.928;30.306;2023-05-19T09:00:21;102853.22;;;12.45;76.67
41250;BME280;26984;59.928;30.306;2023-05-19T09:02:52;102859.00;;;12.26;79.35
41250;BME280;26984;59.928;30.306;2023-05-19T09:05:22;102864.47;;;12.10;81.53
41250;BME280;26984;59.928;30.306;2023-05-19T09:07:53;102863.16;;;11.89;82.75
41250;BME280;26984;59.928;30.306;2023-05-19T09:10:22;102858.91;;;12.03;82.91
41250;BME280;26984;59.928;30.306;2023-05-19T09:12:51;102877.00;;;12.03;80.84
41250;BME280;26984;59.928;30.306;2023-05-19T09:15:20;102863.41;;;12.27;81.12
41250;BME280;26984;59.928;30.306;2023-05-19T09:18:01;102862.03;;;12.39;80.95
41250;BME280;26984;59.928;30.306;2023-05-19T09:20:32;102860.06;;;12.17;80.73
41250;BME280;26984;59.928;30.306;2023-05-19T09:23:05;102865.50;;;12.01;78.95
41250;BME280;26984;59.928;30.306;2023-05-19T09:25:33;102862.97;;;11.91;78.97
41250;BME280;26984;59.928;30.306;2023-05-19T09:28:02;102857.22;;;12.02;81.86
41250;BME280;26984;59.928;30.306;2023-05-19T09:30:31;102861.19;;;12.31;80.07
41250;BME280;26984;59.928;30.306;2023-05-19T09:33:02;102850.19;;;12.40;77.49
41250;BME280;26984;59.928;30.306;2023-05-19T09:35:35;102851.06;;;12.33;77.85
41250;BME280;26984;59.928;30.306;2023-05-19T09:38:05;102851.25;;;12.23;78.99
41250;BME280;26984;59.928;30.306;2023-05-19T09:40:34;102856.16;;;12.19;79.06
41250;BME280;26984;59.928;30.306;2023-05-19T09:43:04;102849.72;;;12.29;78.98
41250;BME280;26984;59.928;30.306;2023-05-19T09:45:31;102846.00;;;12.30;77.67
41250;BME280;26984;59.928;30.306;2023-05-19T09:48:02;102845.66;;;12.33;78.28
41250;BME280;26984;59.928;30.306;2023-05-19T09:50:34;102855.06;;;12.45;76.99
41250;BME280;26984;59.928;30.306;2023-05-19T09:53:03;102839.56;;;12.31;77.66
41250;BME280;26984;59.928;30.306;2023-05-19T09:55:35;102846.69;;;12.32;74.24
41250;BME280;26984;59.928;30.306;2023-05-19T09:58:05;102842.56;;;12.44;74.86
41250;BME280;26984;59.928;30.306;2023-05-19T10:00:35;102847.44;;;12.49;71.23
41250;BME280;26984;59.928;30.306;2023-05-19T10:03:04;102855.09;;;12.37;71.77
41250;BME280;26984;59.928;30.306;2023-05-19T10:05:32;102843.25;;;12.46;71.79
41250;BME280;26984;59.928;30.306;2023-05-19T10:08:01;102857.38;;;12.64;72.16
41250;BME280;26984;59.928;30.306;2023-05-19T10:10:32;102841.97;;;12.65;70.09
41250;BME280;26984;59.928;30.306;2023-05-19T10:13:03;102848.28;;;12.57;69.57
41250;BME280;26984;59.928;30.306;2023-05-19T10:15:34;102839.13;;;12.58;70.05
41250;BME280;26984;59.928;30.306;2023-05-19T10:18:02;102848.66;;;12.85;70.48
41250;BME280;26984;59.928;30.306;2023-05-19T10:20:30;102832.63;;;12.76;70.55
41250;BME280;26984;59.928;30.306;2023-05-19T10:23:02;102846.34;;;12.74;70.27
41250;BME280;26984;59.928;30.306;2023-05-19T10:25:30;102834.91;;;12.64;70.33
41250;BME280;26984;59.928;30.306;2023-05-19T10:28:02;102835.53;;;12.66;70.46
41250;BME280;26984;59.928;30.306;2023-05-19T10:30:32;102842.16;;;12.63;70.28
41250;BME280;26984;59.928;30.306;2023-05-19T10:33:00;102835.75;;;12.87;72.62
41250;BME280;26984;59.928;30.306;2023-05-19T10:35:41;102829.25;;;13.05;69.71
41250;BME280;26984;59.928;30.306;2023-05-19T10:38:13;102843.66;;;13.28;67.60
41250;BME280;26984;59.928;30.306;2023-05-19T10:40:48;102845.09;;;13.39;67.67
41250;BME280;26984;59.928;30.306;2023-05-19T10:43:20;102843.31;;;13.31;66.20
41250;BME280;26984;59.928;30.306;2023-05-19T10:45:53;102838.94;;;13.22;65.09
41250;BME280;26984;59.928;30.306;2023-05-19T10:48:22;102844.50;;;12.98;65.55
41250;BME280;26984;59.928;30.306;2023-05-19T10:50:52;102849.22;;;13.04;66.53
41250;BME280;26984;59.928;30.306;2023-05-19T10:53:20;102833.25;;;13.09;66.11
41250;BME280;26984;59.928;30.306;2023-05-19T10:55:51;102841.69;;;13.14;65.62
41250;BME280;26984;59.928;30.306;2023-05-19T11:01:15;102839.00;;;13.14;66.83
41250;BME280;26984;59.928;30.306;2023-05-19T11:03:44;102847.41;;;13.27;63.01
41250;BME280;26984;59.928;30.306;2023-05-19T11:06:17;102845.78;;;13.10;62.73
41250;BME280;26984;59.928;30.306;2023-05-19T11:08:45;102838.69;;;13.09;63.20
41250;BME280;26984;59.928;30.306;2023-05-19T11:11:14;102857.47;;;13.10;63.43
41250;BME280;26984;59.928;30.306;2023-05-19T11:13:44;102841.69;;;13.14;62.81
41250;BME280;26984;59.928;30.306;2023-05-19T11:16:15;102851.84;;;13.12;62.06
41250;BME280;26984;59.928;30.306;2023-05-19T11:18:47;102862.75;;;13.04;63.50
41250;BME280;26984;59.928;30.306;2023-05-19T11:21:18;102853.50;;;13.21;62.50
41250;BME280;26984;59.928;30.306;2023-05-19T11:23:46;102865.47;;;13.27;61.30
41250;BME280;26984;59.928;30.306;2023-05-19T11:29:06;102858.41;;;13.26;63.02
41250;BME280;26984;59.928;30.306;2023-05-19T11:31:39;102855.25;;;13.37;61.34
41250;BME280;26984;59.928;30.306;2023-05-19T11:34:10;102846.44;;;13.43;60.65
41250;BME280;26984;59.928;30.306;2023-05-19T11:36:38;102853.41;;;13.60;60.71
41250;BME280;26984;59.928;30.306;2023-05-19T11:39:11;102847.72;;;13.70;59.01
41250;BME280;26984;59.928;30.306;2023-05-19T11:41:42;102847.47;;;13.42;60.25
41250;BME280;26984;59.928;30.306;2023-05-19T11:44:10;102856.97;;;13.38;61.03
41250;BME280;26984;59.928;30.306;2023-05-19T11:46:37;102854.63;;;13.35;61.75
41250;BME280;26984;59.928;30.306;2023-05-19T11:49:06;102854.66;;;13.27;62.03
41250;BME280;26984;59.928;30.306;2023-05-19T11:51:35;102855.03;;;13.24;61.92
41250;BME280;26984;59.928;30.306;2023-05-19T11:54:03;102852.47;;;13.22;63.65
41250;BME280;26984;59.928;30.306;2023-05-19T11:56:32;102843.31;;;13.23;62.85
41250;BME280;26984;59.928;30.306;2023-05-19T11:59:00;102839.94;;;13.29;63.36
41250;BME280;26984;59.928;30.306;2023-05-19T12:01:27;102846.38;;;13.28;63.59
41250;BME280;26984;59.928;30.306;2023-05-19T12:03:56;102837.34;;;13.36;63.32
41250;BME280;26984;59.928;30.306;2023-05-19T12:06:25;102854.50;;;13.28;64.59
41250;BME280;26984;59.928;30.306;2023-05-19T12:08:54;102847.97;;;13.37;64.82
41250;BME280;26984;59.928;30.306;2023-05-19T12:11:21;102843.53;;;13.45;65.40
41250;BME280;26984;59.928;30.306;2023-05-19T12:13:49;102851.41;;;13.54;64.47
41250;BME280;26984;59.928;30.306;2023-05-19T12:16:19;102846.41;;;13.66;64.75
41250;BME280;26984;59.928;30.306;2023-05-19T12:18:47;102862.59;;;13.74;63.57
41250;BME280;26984;59.928;30.306;2023-05-19T12:21:15;102845.06;;;13.62;66.00
41250;BME280;26984;59.928;30.306;2023-05-19T12:23:44;102851.72;;;13.59;65.42
41250;BME280;26984;59.928;30.306;2023-05-19T12:26:11;102825.63;;;13.58;65.89
41250;BME280;26984;59.928;30.306;2023-05-19T12:28:39;102843.41;;;13.61;67.12
41250;BME280;26984;59.928;30.306;2023-05-19T12:31:06;102849.88;;;13.75;66.90
41250;BME280;26984;59.928;30.306;2023-05-19T12:33:34;102847.78;;;14.00;66.04
41250;BME280;26984;59.928;30.306;2023-05-19T12:36:02;102836.19;;;13.91;65.35
41250;BME280;26984;59.928;30.306;2023-05-19T12:38:29;102847.53;;;13.72;65.30
41250;BME280;26984;59.928;30.306;2023-05-19T12:40:58;102874.94;;;13.54;67.09
41250;BME280;26984;59.928;30.306;2023-05-19T12:43:26;102873.09;;;13.31;71.31
41250;BME280;26984;59.928;30.306;2023-05-19T12:45:53;102859.34;;;13.33;71.57
41250;BME280;26984;59.928;30.306;2023-05-19T12:48:21;102865.03;;;13.46;72.24
41250;BME280;26984;59.928;30.306;2023-05-19T12:50:50;102866.75;;;13.62;71.15
41250;BME280;26984;59.928;30.306;2023-05-19T12:53:17;102858.72;;;13.69;72.19
41250;BME280;26984;59.928;30.306;2023-05-19T12:55:45;102858.84;;;13.75;68.90
41250;BME280;26984;59.928;30.306;2023-05-19T12:58:14;102859.63;;;13.84;69.55
41250;BME280;26984;59.928;30.306;2023-05-19T13:00:42;102850.22;;;13.95;69.37
41250;BME280;26984;59.928;30.306;2023-05-19T13:03:13;102866.97;;;14.13;69.13
41250;BME280;26984;59.928;30.306;2023-05-19T13:05:42;102883.03;;;14.14;69.45